Time;durP1;ratioP1;P1;durP2;ratioP2;P2;SDS_P1;SDS_P2;PMS_P1;PMS_P2;Temp;Humidity;BMP_temperature;BMP_pressure;BME280_temperature;BME280_humidity;BME280_pressure;Samples;Min_cycle;Max_cycle;Signal;HPM_P1;HPM_P2
2022/09/26 00:01:16;;;;;;;4.97;1.85;;;;;;;;;;4941515;28;20599;-62
2022/09/26 00:03:44;;;;;;;7.43;1.65;;;;;;;;;;4944169;28;20485;-66
2022/09/26 00:06:11;;;;;;;8.25;1.70;;;;;;;;;;4944948;28;20135;-66
2022/09/26 00:08:38;;;;;;;8.18;1.90;;;;;;;;;;4945628;28;20601;-63
2022/09/26 00:11:06;;;;;;;8.27;2.40;;;;;;;;;;4937808;28;20105;-67
2022/09/26 00:13:34;;;;;;;7.93;2.10;;;;;;;;;;4945455;28;20781;-62
2022/09/26 00:16:00;;;;;;;9.88;2.72;;;;;;;;;;4943999;28;20106;-67
2022/09/26 00:18:27;;;;;;;6.55;2.30;;;;;;;;;;4941268;28;20111;-63
2022/09/26 00:21:00;;;;;;;8.93;2.53;;;;;;;;;;4941036;28;20134;-64
2022/09/26 00:23:26;;;;;;;7.20;2.25;;;;;;;;;;4946279;28;20058;-60
2022/09/26 00:25:52;;;;;;;7.38;2.65;;;;;;;;;;4948323;28;20122;-67
2022/09/26 00:28:18;;;;;;;7.55;2.20;;;;;;;;;;4944260;28;20058;-67
2022/09/26 00:30:44;;;;;;;8.90;2.10;;;;;;;;;;4945416;28;20047;-70
2022/09/26 00:33:11;;;;;;;5.28;2.10;;;;;;;;;;4943470;28;20087;-71
2022/09/26 00:35:37;;;;;;;4.95;1.85;;;;;;;;;;4942094;28;20531;-65
2022/09/26 00:38:04;;;;;;;7.20;2.10;;;;;;;;;;4946143;28;20073;-61
2022/09/26 00:40:30;;;;;;;6.00;1.80;;;;;;;;;;4940778;28;20043;-66
2022/09/26 00:42:57;;;;;;;5.28;1.92;;;;;;;;;;4944086;28;20726;-61
2022/09/26 00:45:28;;;;;;;3.90;1.50;;;;;;;;;;4945271;28;20413;-67
2022/09/26 00:48:01;;;;;;;4.55;1.70;;;;;;;;;;4944616;28;20049;-62
2022/09/26 00:50:32;;;;;;;4.15;1.40;;;;;;;;;;4939418;28;20058;-67
2022/09/26 00:53:09;;;;;;;3.78;1.70;;;;;;;;;;4942781;28;20051;-62
2022/09/26 00:55:40;;;;;;;5.20;1.60;;;;;;;;;;4944555;28;20525;-61
2022/09/26 00:58:08;;;;;;;5.55;1.40;;;;;;;;;;4943792;28;20422;-61
2022/09/26 01:00:34;;;;;;;4.65;1.25;;;;;;;;;;4939017;28;20137;-68
2022/09/26 01:03:00;;;;;;;6.43;1.35;;;;;;;;;;4944138;28;20086;-62
2022/09/26 01:05:26;;;;;;;1.73;0.90;;;;;;;;;;4946454;28;20055;-62
2022/09/26 01:07:55;;;;;;;3.33;1.13;;;;;;;;;;4947208;28;20051;-68
2022/09/26 01:10:23;;;;;;;4.57;1.10;;;;;;;;;;4937120;28;20138;-70
2022/09/26 01:12:50;;;;;;;6.97;1.33;;;;;;;;;;4944671;28;20175;-66
2022/09/26 01:15:15;;;;;;;2.83;1.10;;;;;;;;;;4942982;28;20047;-65
2022/09/26 01:17:44;;;;;;;5.43;1.25;;;;;;;;;;4944085;28;20062;-63
2022/09/26 01:20:23;;;;;;;3.08;1.08;;;;;;;;;;4943744;28;20449;-68
2022/09/26 01:23:09;;;;;;;1.13;0.90;;;;;;;;;;4942570;28;20047;-70
2022/09/26 01:25:54;;;;;;;2.90;0.95;;;;;;;;;;4940850;28;20964;-62
2022/09/26 01:28:22;;;;;;;1.77;1.08;;;;;;;;;;4942740;28;20523;-67
2022/09/26 01:30:59;;;;;;;2.63;1.10;;;;;;;;;;4940960;28;20051;-62
2022/09/26 01:33:46;;;;;;;2.00;0.90;;;;;;;;;;4940815;28;20054;-68
2022/09/26 01:36:39;;;;;;;3.53;1.08;;;;;;;;;;4944457;28;20047;-67
2022/09/26 01:39:29;;;;;;;2.90;1.00;;;;;;;;;;4939878;28;20074;-63
2022/09/26 01:42:07;;;;;;;1.67;1.13;;;;;;;;;;4945014;28;20525;-61
2022/09/26 01:44:53;;;;;;;4.78;1.10;;;;;;;;;;4942713;28;20133;-61
2022/09/26 01:47:36;;;;;;;4.18;1.05;;;;;;;;;;4943030;28;20057;-70
2022/09/26 01:50:22;;;;;;;2.28;0.90;;;;;;;;;;4937258;28;20062;-66
2022/09/26 01:53:07;;;;;;;2.35;0.88;;;;;;;;;;4943389;28;20524;-64
2022/09/26 01:55:43;;;;;;;2.25;1.20;;;;;;;;;;4943101;28;20055;-66
2022/09/26 01:58:33;;;;;;;3.13;0.90;;;;;;;;;;4941963;28;20093;-67
2022/09/26 02:01:03;;;;;;;1.55;0.98;;;;;;;;;;4939239;28;20047;-66
2022/09/26 02:03:35;;;;;;;4.32;1.05;;;;;;;;;;4942143;28;20241;-63
2022/09/26 02:06:12;;;;;;;2.22;0.98;;;;;;;;;;4941067;28;20054;-61
2022/09/26 02:09:00;;;;;;;1.25;0.90;;;;;;;;;;4942583;28;20055;-61
2022/09/26 02:11:27;;;;;;;13.43;1.17;;;;;;;;;;4942726;28;20055;-66
2022/09/26 02:14:04;;;;;;;4.15;0.90;;;;;;;;;;4944591;28;20134;-68
2022/09/26 02:16:49;;;;;;;2.78;1.20;;;;;;;;;;4940390;28;20059;-63
2022/09/26 02:19:36;;;;;;;2.40;0.90;;;;;;;;;;4937983;28;20082;-72
2022/09/26 02:22:02;;;;;;;2.00;1.08;;;;;;;;;;4944384;28;20058;-62
2022/09/26 02:24:28;;;;;;;3.40;0.88;;;;;;;;;;4943836;28;20062;-67
2022/09/26 02:26:54;;;;;;;1.45;0.82;;;;;;;;;;4944313;28;20493;-68
2022/09/26 02:29:20;;;;;;;2.50;1.10;;;;;;;;;;4940452;28;20050;-63
2022/09/26 02:31:59;;;;;;;4.93;0.90;;;;;;;;;;4942595;28;20043;-64
2022/09/26 02:34:25;;;;;;;4.13;0.98;;;;;;;;;;4942424;28;20054;-61
2022/09/26 02:36:54;;;;;;;2.33;0.85;;;;;;;;;;4943671;28;20134;-65
2022/09/26 02:39:20;;;;;;;2.78;1.10;;;;;;;;;;4939876;28;20047;-66
2022/09/26 02:42:13;;;;;;;5.25;1.00;;;;;;;;;;4942838;28;20468;-68
2022/09/26 02:45:13;;;;;;;1.23;0.82;;;;;;;;;;4942056;28;20067;-61
2022/09/26 02:48:07;;;;;;;3.05;0.98;;;;;;;;;;4943419;28;20510;-64
2022/09/26 02:50:48;;;;;;;6.50;0.90;;;;;;;;;;4939782;28;20406;-63
2022/09/26 02:53:22;;;;;;;2.97;0.85;;;;;;;;;;4940653;28;20085;-70
2022/09/26 02:56:08;;;;;;;4.13;0.93;;;;;;;;;;4944108;28;20058;-66
2022/09/26 02:58:36;;;;;;;1.55;0.80;;;;;;;;;;4942343;28;20615;-69
2022/09/26 03:01:09;;;;;;;4.45;0.90;;;;;;;;;;4940745;28;20054;-68
2022/09/26 03:04:15;;;;;;;2.95;0.80;;;;;;;;;;4942693;28;20066;-66
2022/09/26 03:06:47;;;;;;;3.50;1.05;;;;;;;;;;4941932;28;20051;-69
2022/09/26 03:09:14;;;;;;;3.28;1.00;;;;;;;;;;4942613;28;20059;-64
2022/09/26 03:11:41;;;;;;;1.67;0.70;;;;;;;;;;4941276;28;20130;-64
2022/09/26 03:14:08;;;;;;;2.05;0.88;;;;;;;;;;4941569;28;20059;-65
2022/09/26 03:16:38;;;;;;;1.48;0.80;;;;;;;;;;4940462;28;20189;-67
2022/09/26 03:19:13;;;;;;;2.25;1.00;;;;;;;;;;4957803;28;20055;-66
2022/09/26 03:21:39;;;;;;;1.23;0.85;;;;;;;;;;4943342;28;20065;-68
2022/09/26 03:24:05;;;;;;;4.70;1.10;;;;;;;;;;4944162;28;20046;-61
2022/09/26 03:26:32;;;;;;;1.55;0.80;;;;;;;;;;4945259;28;20539;-62
2022/09/26 03:28:58;;;;;;;3.25;0.80;;;;;;;;;;4945270;28;20126;-63
2022/09/26 03:31:24;;;;;;;1.13;0.80;;;;;;;;;;4941567;28;20150;-68
2022/09/26 03:33:51;;;;;;;1.77;0.88;;;;;;;;;;4945010;28;20130;-67
2022/09/26 03:36:18;;;;;;;2.67;1.20;;;;;;;;;;4949540;28;20047;-65
2022/09/26 03:38:43;;;;;;;1.75;0.88;;;;;;;;;;4946457;28;20508;-68
2022/09/26 03:41:09;;;;;;;1.60;0.88;;;;;;;;;;4946667;28;20051;-62
2022/09/26 03:43:36;;;;;;;4.07;1.10;;;;;;;;;;4945096;28;20069;-62
2022/09/26 03:46:05;;;;;;;1.13;0.80;;;;;;;;;;4944602;28;20044;-67
2022/09/26 03:48:32;;;;;;;2.28;1.00;;;;;;;;;;4941880;28;20673;-62
2022/09/26 03:51:07;;;;;;;2.40;1.10;;;;;;;;;;4942261;28;20129;-59
2022/09/26 03:53:35;;;;;;;7.70;1.30;;;;;;;;;;4944810;28;20055;-64
2022/09/26 03:56:10;;;;;;;5.45;1.20;;;;;;;;;;4946788;28;20505;-60
2022/09/26 03:58:36;;;;;;;5.38;1.38;;;;;;;;;;4943809;28;20054;-64
2022/09/26 04:01:07;;;;;;;6.88;1.50;;;;;;;;;;4934765;28;20059;-67
2022/09/26 04:03:34;;;;;;;3.30;1.40;;;;;;;;;;4943434;28;20074;-64
2022/09/26 04:06:01;;;;;;;4.25;1.33;;;;;;;;;;4943705;28;20308;-62
2022/09/26 04:08:27;;;;;;;3.75;1.40;;;;;;;;;;4947434;28;20078;-66
2022/09/26 04:11:06;;;;;;;6.05;1.50;;;;;;;;;;4944947;28;20051;-60
2022/09/26 04:13:32;;;;;;;6.10;1.42;;;;;;;;;;4947444;29;20057;-71
2022/09/26 04:16:02;;;;;;;4.30;1.45;;;;;;;;;;4945120;28;20047;-62
2022/09/26 04:18:29;;;;;;;4.80;1.70;;;;;;;;;;4945040;28;20055;-65
2022/09/26 04:20:59;;;;;;;6.82;2.03;;;;;;;;;;4940705;28;20525;-65
2022/09/26 04:23:32;;;;;;;6.25;1.73;;;;;;;;;;4944805;28;20051;-64
2022/09/26 04:26:12;;;;;;;4.13;1.80;;;;;;;;;;4955158;28;20046;-64
2022/09/26 04:28:39;;;;;;;5.53;1.90;;;;;;;;;;4940967;28;20058;-62
2022/09/26 04:31:06;;;;;;;5.43;2.00;;;;;;;;;;4937752;28;20590;-63
2022/09/26 04:33:32;;;;;;;7.95;2.05;;;;;;;;;;4943906;28;20043;-61
2022/09/26 04:36:01;;;;;;;7.70;2.15;;;;;;;;;;4945321;28;20556;-63
2022/09/26 04:38:33;;;;;;;7.13;2.33;;;;;;;;;;4940575;28;20134;-65
2022/09/26 04:41:21;;;;;;;6.18;2.47;;;;;;;;;;4944581;28;20051;-62
2022/09/26 04:43:47;;;;;;;8.70;2.28;;;;;;;;;;4949567;28;20051;-68
2022/09/26 04:46:16;;;;;;;7.78;2.40;;;;;;;;;;4947688;28;20055;-70
2022/09/26 04:48:42;;;;;;;7.07;3.00;;;;;;;;;;4965965;28;20074;-61
2022/09/26 04:51:14;;;;;;;5.95;2.75;;;;;;;;;;4944097;28;20059;-67
2022/09/26 04:53:40;;;;;;;10.32;3.15;;;;;;;;;;4940953;28;20106;-64
2022/09/26 04:56:08;;;;;;;8.30;3.70;;;;;;;;;;4941531;28;21082;-61
2022/09/26 04:58:37;;;;;;;11.68;3.45;;;;;;;;;;4939622;28;20568;-65
2022/09/26 05:01:05;;;;;;;7.10;3.38;;;;;;;;;;4940645;28;20521;-68
2022/09/26 05:03:31;;;;;;;7.55;3.55;;;;;;;;;;4945769;28;20051;-62
2022/09/26 05:05:58;;;;;;;8.88;3.47;;;;;;;;;;4944782;28;20054;-63
2022/09/26 05:08:24;;;;;;;9.68;3.20;;;;;;;;;;4944041;28;20081;-67
2022/09/26 05:10:52;;;;;;;11.07;3.40;;;;;;;;;;4942824;28;20043;-64
2022/09/26 05:13:18;;;;;;;9.00;3.53;;;;;;;;;;4940430;28;20055;-67
2022/09/26 05:15:44;;;;;;;8.70;3.45;;;;;;;;;;4944032;28;20175;-64
2022/09/26 05:18:10;;;;;;;9.95;3.03;;;;;;;;;;4942996;28;20383;-65
2022/09/26 05:20:37;;;;;;;9.23;3.45;;;;;;;;;;4941494;28;20063;-61
2022/09/26 05:23:06;;;;;;;8.93;3.60;;;;;;;;;;4943725;28;20055;-62
2022/09/26 05:28:25;;;;;;;7.95;3.55;;;;;;;;;;4943052;28;20490;-63
2022/09/26 05:30:51;;;;;;;7.00;3.40;;;;;;;;;;4939385;28;20382;-66
2022/09/26 05:33:19;;;;;;;11.60;3.15;;;;;;;;;;4940408;28;20070;-65
2022/09/26 05:35:49;;;;;;;8.13;3.42;;;;;;;;;;4941878;29;20081;-64
2022/09/26 05:38:16;;;;;;;7.78;2.70;;;;;;;;;;4942562;28;20063;-66
2022/09/26 05:40:57;;;;;;;6.35;2.97;;;;;;;;;;4939593;28;20508;-62
2022/09/26 05:43:26;;;;;;;11.13;3.15;;;;;;;;;;4944123;28;20047;-67
2022/09/26 05:46:00;;;;;;;7.88;2.80;;;;;;;;;;4942389;28;20110;-67
2022/09/26 05:48:28;;;;;;;6.38;2.53;;;;;;;;;;4955553;28;20577;-66
2022/09/26 05:50:53;;;;;;;12.95;3.50;;;;;;;;;;4938679;28;20082;-68
2022/09/26 05:53:19;;;;;;;13.43;5.20;;;;;;;;;;4935486;28;20130;-59
2022/09/26 05:55:49;;;;;;;22.30;10.65;;;;;;;;;;4941691;28;20055;-62
2022/09/26 05:58:17;;;;;;;17.13;8.40;;;;;;;;;;4941696;28;20910;-59
2022/09/26 06:00:46;;;;;;;16.30;6.88;;;;;;;;;;4940491;28;20138;-60
2022/09/26 06:03:13;;;;;;;8.63;2.88;;;;;;;;;;4941559;28;20059;-64
2022/09/26 06:05:40;;;;;;;8.57;3.28;;;;;;;;;;4940196;28;20055;-60
2022/09/26 06:08:07;;;;;;;7.38;3.05;;;;;;;;;;4941849;29;20555;-62
2022/09/26 06:10:35;;;;;;;11.85;3.80;;;;;;;;;;4939371;28;20066;-63
2022/09/26 06:13:02;;;;;;;7.45;2.97;;;;;;;;;;4942629;28;20039;-57
2022/09/26 06:15:31;;;;;;;8.05;3.20;;;;;;;;;;4937265;28;20150;-59
2022/09/26 06:17:59;;;;;;;6.05;2.90;;;;;;;;;;4943487;28;20410;-59
2022/09/26 06:20:25;;;;;;;5.03;2.38;;;;;;;;;;4936731;29;20394;-55
2022/09/26 06:22:53;;;;;;;5.35;3.10;;;;;;;;;;4938601;28;20136;-60
2022/09/26 06:25:19;;;;;;;7.43;2.17;;;;;;;;;;4942083;28;20418;-63
2022/09/26 06:27:46;;;;;;;7.55;2.13;;;;;;;;;;4943696;28;20051;-57
2022/09/26 06:30:13;;;;;;;6.15;2.03;;;;;;;;;;4942011;28;20058;-57
2022/09/26 06:32:39;;;;;;;7.70;2.35;;;;;;;;;;4943063;28;20051;-65
2022/09/26 06:35:06;;;;;;;9.10;2.20;;;;;;;;;;4943815;28;20063;-64
2022/09/26 06:37:32;;;;;;;6.82;2.72;;;;;;;;;;4941966;28;20094;-63
2022/09/26 06:39:59;;;;;;;5.97;2.05;;;;;;;;;;4931416;28;20130;-61
2022/09/26 06:42:25;;;;;;;8.02;2.75;;;;;;;;;;4934587;28;20349;-64
2022/09/26 06:44:51;;;;;;;9.07;2.75;;;;;;;;;;4944582;28;20351;-63
2022/09/26 06:47:17;;;;;;;10.65;2.63;;;;;;;;;;4944427;28;20063;-65
2022/09/26 06:49:46;;;;;;;5.72;2.55;;;;;;;;;;4946916;28;20501;-60
2022/09/26 06:52:12;;;;;;;6.43;2.00;;;;;;;;;;4947453;28;20067;-61
2022/09/26 06:54:38;;;;;;;8.20;2.05;;;;;;;;;;4945719;28;20043;-60
2022/09/26 06:57:04;;;;;;;3.25;1.83;;;;;;;;;;4949390;28;20039;-62
2022/09/26 06:59:30;;;;;;;3.88;1.60;;;;;;;;;;4948307;28;20075;-65
2022/09/26 07:01:56;;;;;;;6.40;1.83;;;;;;;;;;4950312;28;20323;-61
2022/09/26 07:04:26;;;;;;;5.13;1.70;;;;;;;;;;4951432;28;20067;-68
2022/09/26 07:06:53;;;;;;;15.43;6.70;;;;;;;;;;4956310;28;20182;-70
2022/09/26 07:09:19;;;;;;;4.38;2.33;;;;;;;;;;4952576;28;20066;-61
2022/09/26 07:11:47;;;;;;;4.97;1.73;;;;;;;;;;4956179;28;20043;-67
2022/09/26 07:14:16;;;;;;;8.63;1.70;;;;;;;;;;4953757;28;20077;-60
2022/09/26 07:16:47;;;;;;;4.80;1.67;;;;;;;;;;4946441;28;20050;-58
2022/09/26 07:19:13;;;;;;;3.72;1.88;;;;;;;;;;4952826;28;20766;-59
2022/09/26 07:21:39;;;;;;;7.75;2.05;;;;;;;;;;4951944;28;20075;-59
2022/09/26 07:24:06;;;;;;;6.03;2.13;;;;;;;;;;4946891;28;20095;-59
2022/09/26 07:26:33;;;;;;;11.52;2.15;;;;;;;;;;4941979;28;20405;-59
2022/09/26 07:28:59;;;;;;;4.30;1.70;;;;;;;;;;4952065;28;20485;-61
2022/09/26 07:31:25;;;;;;;4.65;1.95;;;;;;;;;;4950432;28;20046;-59
2022/09/26 07:33:51;;;;;;;7.88;1.98;;;;;;;;;;4966614;28;20061;-71
2022/09/26 07:36:19;;;;;;;4.78;1.70;;;;;;;;;;4952335;28;20098;-64
2022/09/26 07:38:49;;;;;;;4.88;1.55;;;;;;;;;;4950180;28;20055;-59
2022/09/26 07:41:16;;;;;;;9.75;1.55;;;;;;;;;;4963719;28;20051;-70
2022/09/26 07:43:42;;;;;;;5.60;2.00;;;;;;;;;;4950533;28;20497;-61
2022/09/26 07:51:37;;;;;;;4.97;1.80;;;;;;;;;;4952094;28;20058;-67
2022/09/26 07:54:04;;;;;;;8.63;2.10;;;;;;;;;;4948360;28;20051;-61
2022/09/26 07:56:33;;;;;;;9.77;2.35;;;;;;;;;;4957373;28;20048;-67
2022/09/26 07:59:04;;;;;;;4.60;1.80;;;;;;;;;;4952310;28;20047;-68
2022/09/26 08:01:31;;;;;;;7.32;1.75;;;;;;;;;;4955894;28;20050;-57
2022/09/26 08:03:57;;;;;;;7.82;1.90;;;;;;;;;;4952265;28;20084;-58
2022/09/26 08:06:24;;;;;;;6.53;1.65;;;;;;;;;;4945999;28;20534;-66
2022/09/26 08:08:54;;;;;;;4.97;1.40;;;;;;;;;;4969391;28;20047;-58
2022/09/26 08:11:22;;;;;;;5.53;1.48;;;;;;;;;;4960714;28;20461;-58
2022/09/26 08:13:48;;;;;;;2.55;1.25;;;;;;;;;;4947568;28;20229;-56
2022/09/26 08:16:23;;;;;;;7.13;1.73;;;;;;;;;;4952695;28;20051;-63
2022/09/26 08:18:50;;;;;;;5.43;1.50;;;;;;;;;;4953563;28;20074;-61
2022/09/26 08:21:16;;;;;;;6.15;1.70;;;;;;;;;;4954514;28;20063;-56
2022/09/26 08:23:43;;;;;;;8.02;2.03;;;;;;;;;;4954178;28;20039;-60
2022/09/26 08:26:09;;;;;;;12.68;2.78;;;;;;;;;;4954309;28;20044;-61
2022/09/26 08:28:36;;;;;;;10.70;2.20;;;;;;;;;;4948723;28;20047;-57
2022/09/26 08:31:03;;;;;;;21.58;4.25;;;;;;;;;;4948656;28;20051;-59
2022/09/26 08:33:34;;;;;;;4.97;1.90;;;;;;;;;;4952149;28;20087;-69
2022/09/26 08:36:08;;;;;;;10.05;2.10;;;;;;;;;;4961503;28;20053;-71
2022/09/26 08:38:35;;;;;;;6.75;1.90;;;;;;;;;;4959461;28;20058;-59
2022/09/26 08:41:01;;;;;;;11.18;1.98;;;;;;;;;;4955441;28;20497;-64
2022/09/26 08:44:04;;;;;;;7.70;1.92;;;;;;;;;;4959143;28;20059;-62
2022/09/26 08:46:58;;;;;;;8.50;2.75;;;;;;;;;;4939424;28;20146;-60
2022/09/26 08:49:47;;;;;;;6.03;2.17;;;;;;;;;;4944704;28;20116;-68
2022/09/26 08:52:34;;;;;;;4.80;2.00;;;;;;;;;;4950878;28;20098;-60
2022/09/26 08:55:06;;;;;;;6.40;1.70;;;;;;;;;;4949529;28;20051;-71
2022/09/26 08:57:40;;;;;;;4.13;1.52;;;;;;;;;;4948267;28;20283;-59
2022/09/26 09:00:29;;;;;;;5.15;1.80;;;;;;;;;;4950695;28;20048;-68
2022/09/26 09:03:01;;;;;;;3.17;1.60;;;;;;;;;;4951656;28;20057;-66
2022/09/26 09:05:31;;;;;;;11.07;2.00;;;;;;;;;;4949268;28;20063;-61
2022/09/26 09:08:00;;;;;;;6.07;1.70;;;;;;;;;;4942660;28;20413;-60
2022/09/26 09:10:40;;;;;;;10.77;2.00;;;;;;;;;;4948157;28;20051;-66
2022/09/26 09:13:19;;;;;;;8.25;2.20;;;;;;;;;;4946261;28;20497;-62
2022/09/26 09:16:22;;;;;;;8.30;1.73;;;;;;;;;;4963421;28;20043;-64
2022/09/26 09:19:10;;;;;;;8.85;1.60;;;;;;;;;;4962135;28;20344;-64
2022/09/26 09:21:39;;;;;;;6.35;1.63;;;;;;;;;;4948190;28;20210;-62
2022/09/26 09:24:16;;;;;;;4.82;2.00;;;;;;;;;;4949171;28;20055;-68
2022/09/26 09:27:17;;;;;;;5.63;1.65;;;;;;;;;;4947530;28;20053;-62
2022/09/26 09:29:59;;;;;;;4.82;1.67;;;;;;;;;;4942313;28;20050;-62
2022/09/26 09:32:40;;;;;;;7.18;2.00;;;;;;;;;;4965241;28;20063;-67
2022/09/26 09:35:13;;;;;;;9.30;1.98;;;;;;;;;;4949964;28;20130;-62
2022/09/26 09:37:58;;;;;;;4.85;1.60;;;;;;;;;;4949850;28;20047;-63
2022/09/26 09:40:30;;;;;;;4.82;1.38;;;;;;;;;;4964070;28;20059;-68
2022/09/26 09:43:15;;;;;;;5.22;1.20;;;;;;;;;;4946710;28;20047;-63
2022/09/26 09:45:50;;;;;;;6.32;1.58;;;;;;;;;;4950808;28;20078;-63
2022/09/26 09:48:16;;;;;;;5.18;1.20;;;;;;;;;;4962767;28;20400;-63
2022/09/26 09:51:17;;;;;;;4.35;1.60;;;;;;;;;;4949902;28;20055;-72
2022/09/26 09:54:17;;;;;;;4.70;1.58;;;;;;;;;;4948319;28;20051;-63
2022/09/26 09:57:06;;;;;;;4.10;1.25;;;;;;;;;;4952048;28;20051;-66
2022/09/26 10:00:10;;;;;;;3.83;1.27;;;;;;;;;;4951047;28;20058;-62
2022/09/26 10:03:07;;;;;;;5.47;1.65;;;;;;;;;;4949476;28;20047;-62
2022/09/26 10:05:49;;;;;;;3.15;1.23;;;;;;;;;;4948869;28;20494;-65
2022/09/26 10:08:30;;;;;;;4.95;1.38;;;;;;;;;;4948234;28;20051;-65
2022/09/26 10:11:31;;;;;;;10.25;1.55;;;;;;;;;;4948733;28;20055;-64
2022/09/26 10:14:05;;;;;;;8.27;1.40;;;;;;;;;;4946897;28;20064;-68
2022/09/26 10:16:33;;;;;;;11.85;1.70;;;;;;;;;;4949139;28;20086;-68
2022/09/26 10:19:02;;;;;;;6.35;1.23;;;;;;;;;;4948627;28;20092;-65
2022/09/26 10:21:34;;;;;;;3.55;1.30;;;;;;;;;;4949345;28;20043;-64
2022/09/26 10:24:03;;;;;;;2.72;1.27;;;;;;;;;;4948205;28;20145;-71
2022/09/26 10:26:34;;;;;;;3.63;1.20;;;;;;;;;;4948841;28;20102;-63
2022/09/26 10:29:07;;;;;;;5.35;1.70;;;;;;;;;;4948673;28;20071;-62
2022/09/26 10:31:37;;;;;;;12.07;2.28;;;;;;;;;;4948531;28;20051;-63
2022/09/26 10:34:06;;;;;;;3.20;1.40;;;;;;;;;;4948963;28;20047;-70
2022/09/26 10:36:39;;;;;;;4.72;1.40;;;;;;;;;;4948395;28;20493;-67
2022/09/26 10:42:00;;;;;;;3.10;1.45;;;;;;;;;;4951232;28;20085;-72
2022/09/26 10:44:35;;;;;;;3.70;1.30;;;;;;;;;;4951973;28;20054;-64
2022/09/26 10:47:09;;;;;;;5.72;1.67;;;;;;;;;;4952391;28;20051;-64
2022/09/26 10:49:50;;;;;;;5.25;1.70;;;;;;;;;;4951483;28;20087;-64
2022/09/26 10:52:27;;;;;;;4.85;1.58;;;;;;;;;;4950700;28;20489;-64
2022/09/26 10:55:06;;;;;;;7.88;1.60;;;;;;;;;;4947723;28;20055;-62
2022/09/26 10:57:44;;;;;;;4.93;1.45;;;;;;;;;;4949963;28;20761;-63
2022/09/26 11:00:18;;;;;;;3.25;1.50;;;;;;;;;;4950172;28;20062;-64
2022/09/26 11:02:46;;;;;;;6.30;1.73;;;;;;;;;;4950073;28;20138;-63
2022/09/26 11:08:04;;;;;;;7.10;1.70;;;;;;;;;;4938199;28;20138;-65
2022/09/26 11:10:35;;;;;;;8.82;1.83;;;;;;;;;;4949523;28;20150;-67
2022/09/26 11:13:16;;;;;;;5.93;1.38;;;;;;;;;;4949515;28;20048;-65
2022/09/26 11:16:13;;;;;;;9.13;2.13;;;;;;;;;;4949148;28;20273;-63
2022/09/26 11:19:06;;;;;;;8.38;1.90;;;;;;;;;;4940114;28;20055;-68
2022/09/26 11:21:41;;;;;;;6.32;1.40;;;;;;;;;;4938450;28;20043;-70
2022/09/26 11:24:44;;;;;;;12.50;2.47;;;;;;;;;;4949430;28;20217;-63
2022/09/26 11:27:22;;;;;;;4.20;1.42;;;;;;;;;;4950863;28;20055;-67
2022/09/26 11:30:08;;;;;;;8.98;1.40;;;;;;;;;;4948382;28;20047;-66
2022/09/26 11:32:42;;;;;;;4.22;1.55;;;;;;;;;;4949646;28;20054;-73
2022/09/26 11:35:15;;;;;;;6.55;1.75;;;;;;;;;;4959354;28;20055;-71
2022/09/26 11:38:04;;;;;;;3.15;1.50;;;;;;;;;;4948377;28;20075;-65
2022/09/26 11:40:45;;;;;;;5.35;1.30;;;;;;;;;;4939394;28;20051;-65
2022/09/26 11:43:37;;;;;;;9.05;1.75;;;;;;;;;;4945527;28;20049;-64
2022/09/26 11:46:03;;;;;;;6.25;2.35;;;;;;;;;;4948122;28;20043;-66
2022/09/26 11:48:50;;;;;;;6.82;1.50;;;;;;;;;;4963235;28;20058;-62
2022/09/26 11:51:39;;;;;;;11.93;1.70;;;;;;;;;;4951940;28;20501;-62
2022/09/26 11:54:44;;;;;;;7.07;1.70;;;;;;;;;;4951119;28;20055;-63
2022/09/26 11:57:31;;;;;;;6.05;1.70;;;;;;;;;;4940900;28;20074;-62
2022/09/26 12:00:26;;;;;;;8.27;2.25;;;;;;;;;;4951956;28;20055;-65
2022/09/26 12:02:59;;;;;;;4.50;1.77;;;;;;;;;;4941367;28;20047;-67
2022/09/26 12:05:35;;;;;;;8.23;1.42;;;;;;;;;;4951492;28;20065;-63
2022/09/26 12:08:29;;;;;;;8.45;2.08;;;;;;;;;;4950593;28;20584;-61
2022/09/26 12:10:55;;;;;;;4.50;1.58;;;;;;;;;;4951851;28;20068;-63
2022/09/26 12:13:33;;;;;;;8.45;1.80;;;;;;;;;;4951804;28;20493;-64
2022/09/26 12:16:20;;;;;;;7.20;1.50;;;;;;;;;;4951087;28;20481;-64
2022/09/26 12:19:19;;;;;;;3.60;1.30;;;;;;;;;;4953936;28;20059;-67
2022/09/26 12:22:29;;;;;;;3.33;1.38;;;;;;;;;;4955118;28;20050;-64
2022/09/26 12:25:35;;;;;;;3.35;1.40;;;;;;;;;;4954325;28;20473;-62
2022/09/26 12:28:21;;;;;;;6.18;1.95;;;;;;;;;;4953679;28;20066;-68
2022/09/26 12:31:00;;;;;;;5.35;1.90;;;;;;;;;;4948317;28;20066;-65
2022/09/26 12:33:57;;;;;;;3.80;1.73;;;;;;;;;;4975513;28;20093;-65
2022/09/26 12:36:53;;;;;;;2.15;1.40;;;;;;;;;;4952832;28;20051;-73
2022/09/26 12:39:41;;;;;;;11.88;1.60;;;;;;;;;;4950476;28;20059;-62
2022/09/26 12:42:07;;;;;;;6.85;1.30;;;;;;;;;;4953347;28;20134;-70
2022/09/26 12:44:56;;;;;;;4.78;1.33;;;;;;;;;;4951147;28;20043;-69
2022/09/26 12:47:48;;;;;;;3.53;1.38;;;;;;;;;;4958418;28;20046;-67
2022/09/26 12:50:22;;;;;;;3.15;1.48;;;;;;;;;;4956523;28;20425;-68
2022/09/26 12:53:21;;;;;;;4.55;1.40;;;;;;;;;;4952741;28;20317;-64
2022/09/26 12:56:06;;;;;;;7.35;1.60;;;;;;;;;;4945443;28;20047;-64
2022/09/26 12:58:50;;;;;;;8.80;2.53;;;;;;;;;;4952923;28;20047;-64
2022/09/26 13:02:01;;;;;;;7.72;1.60;;;;;;;;;;4951927;28;20071;-73
2022/09/26 13:04:33;;;;;;;4.20;1.70;;;;;;;;;;4940186;28;20063;-65
2022/09/26 13:07:35;;;;;;;6.43;1.70;;;;;;;;;;4950100;28;20486;-63
2022/09/26 13:10:19;;;;;;;4.45;1.35;;;;;;;;;;4950075;28;20059;-64
2022/09/26 13:12:45;;;;;;;3.63;1.38;;;;;;;;;;4936516;28;20066;-63
2022/09/26 13:15:51;;;;;;;8.10;1.40;;;;;;;;;;4949840;28;20489;-66
2022/09/26 13:18:27;;;;;;;5.47;1.40;;;;;;;;;;4947090;28;20062;-69
2022/09/26 13:20:57;;;;;;;6.40;1.40;;;;;;;;;;4951759;28;20133;-73
2022/09/26 13:23:34;;;;;;;4.50;1.17;;;;;;;;;;4951629;28;20130;-71
2022/09/26 13:26:13;;;;;;;3.80;1.42;;;;;;;;;;4949644;28;20179;-73
2022/09/26 13:28:56;;;;;;;5.78;1.38;;;;;;;;;;4950126;28;20155;-64
2022/09/26 13:31:28;;;;;;;5.30;1.38;;;;;;;;;;4955627;28;20058;-65
2022/09/26 13:34:02;;;;;;;5.40;1.60;;;;;;;;;;4957550;28;20051;-65
2022/09/26 13:36:31;;;;;;;6.35;1.40;;;;;;;;;;4949603;28;20649;-64
2022/09/26 13:39:05;;;;;;;4.45;1.30;;;;;;;;;;4960408;28;20097;-73
2022/09/26 13:42:00;;;;;;;5.85;2.78;;;;;;;;;;4950927;28;20071;-74
2022/09/26 13:44:52;;;;;;;8.38;1.65;;;;;;;;;;4947098;28;20631;-72
2022/09/26 13:47:53;;;;;;;5.63;1.40;;;;;;;;;;4955514;28;20519;-63
2022/09/26 13:50:46;;;;;;;5.63;1.55;;;;;;;;;;4947634;28;20536;-69
2022/09/26 13:53:20;;;;;;;6.70;1.50;;;;;;;;;;4948284;28;20091;-65
2022/09/26 13:56:24;;;;;;;4.28;0.95;;;;;;;;;;4949210;28;20051;-63
2022/09/26 13:59:03;;;;;;;3.20;1.37;;;;;;;;;;4949021;28;20062;-71
2022/09/26 14:01:29;;;;;;;3.95;1.20;;;;;;;;;;4949788;28;20055;-63
2022/09/26 14:04:32;;;;;;;4.47;1.45;;;;;;;;;;4963708;28;20058;-68
2022/09/26 14:10:00;;;;;;;11.73;1.60;;;;;;;;;;4948946;28;20504;-62
2022/09/26 14:13:05;;;;;;;6.13;1.38;;;;;;;;;;4948160;28;20043;-64
2022/09/26 14:15:47;;;;;;;;;;;;;;;;;;4950188;28;20058;-67
2022/09/26 14:18:47;;;;;;;6.25;1.20;;;;;;;;;;4950205;28;20305;-68
2022/09/26 14:21:36;;;;;;;5.10;1.50;;;;;;;;;;4941598;28;20059;-62
2022/09/26 14:24:24;;;;;;;3.85;1.70;;;;;;;;;;4951620;28;20101;-65
2022/09/26 14:26:57;;;;;;;6.53;2.88;;;;;;;;;;4943629;28;20353;-63
2022/09/26 14:29:29;;;;;;;3.95;1.27;;;;;;;;;;4951561;28;20516;-64
2022/09/26 14:32:00;;;;;;;2.40;1.10;;;;;;;;;;4953096;28;20051;-72
2022/09/26 14:34:32;;;;;;;5.13;2.45;;;;;;;;;;4952346;28;20085;-66
2022/09/26 14:37:02;;;;;;;4.32;1.50;;;;;;;;;;4953179;28;20386;-67
2022/09/26 14:39:36;;;;;;;5.90;1.45;;;;;;;;;;4949787;28;20047;-66
2022/09/26 14:42:25;;;;;;;2.92;1.60;;;;;;;;;;4965342;28;20051;-63
2022/09/26 14:44:57;;;;;;;5.10;1.30;;;;;;;;;;4950021;28;20050;-67
2022/09/26 14:47:26;;;;;;;3.03;1.40;;;;;;;;;;4956624;28;20058;-62
2022/09/26 14:49:58;;;;;;;5.97;1.40;;;;;;;;;;4955877;28;20058;-62
2022/09/26 14:52:25;;;;;;;2.70;1.50;;;;;;;;;;4947936;28;20051;-71
2022/09/26 14:54:54;;;;;;;5.45;1.10;;;;;;;;;;4947118;28;20058;-64
2022/09/26 14:57:26;;;;;;;8.85;1.75;;;;;;;;;;4948131;28;20110;-65
2022/09/26 14:59:52;;;;;;;4.85;2.10;;;;;;;;;;4944385;28;20445;-64
2022/09/26 15:02:27;;;;;;;7.55;2.65;;;;;;;;;;4946877;28;20047;-65
2022/09/26 15:05:02;;;;;;;4.50;1.40;;;;;;;;;;4944386;28;20627;-63
2022/09/26 15:07:33;;;;;;;10.10;1.67;;;;;;;;;;4947249;28;20047;-69
2022/09/26 15:10:12;;;;;;;3.63;1.10;;;;;;;;;;4947569;28;20051;-70
2022/09/26 15:12:52;;;;;;;4.78;1.38;;;;;;;;;;4944562;28;20114;-62
2022/09/26 15:15:44;;;;;;;2.08;1.10;;;;;;;;;;4948496;28;20051;-65
2022/09/26 15:18:27;;;;;;;4.57;1.35;;;;;;;;;;4957381;28;20051;-63
2022/09/26 15:20:58;;;;;;;3.60;1.35;;;;;;;;;;4951899;28;20557;-66
2022/09/26 15:23:48;;;;;;;4.93;1.10;;;;;;;;;;5126196;27;20396;-68
2022/09/26 15:26:25;;;;;;;6.85;1.60;;;;;;;;;;5116776;27;20119;-69
2022/09/26 15:28:53;;;;;;;3.60;1.10;;;;;;;;;;5126196;27;20428;-73
2022/09/26 15:31:20;;;;;;;3.58;1.20;;;;;;;;;;5127456;27;20391;-74
2022/09/26 15:33:54;;;;;;;6.45;1.48;;;;;;;;;;5126388;27;20047;-72
2022/09/26 15:36:20;;;;;;;7.32;1.48;;;;;;;;;;5122196;28;20086;-70
2022/09/26 15:38:47;;;;;;;6.85;1.50;;;;;;;;;;5124084;28;20097;-69
2022/09/26 15:42:56;;;;;;;5.72;1.10;;;;;;;;;;5119164;27;20121;-68
2022/09/26 15:44:07;;;;;;;5.00;1.20;;;;;;;;;;5116177;27;20071;-69
2022/09/26 15:46:33;;;;;;;3.25;1.35;;;;;;;;;;5116910;28;20047;-70